Terre Haute, IN (47805)

8:09 AM EDT on June 25, 2017 (GMT -0400)
Shrine Hill | | Change Station
Active Advisory: Flood Warning

Elev 594 ft 39.51 °N, 87.35 °W | Updated 15 seconds ago

Clear
Clear
59.4 °F
Feels Like 59.4 °F
N
1.0
Wind Variable Wind from SSE

Today
High -- | Low -- °F
--% Chance of Precip.
Yesterday
High -- | Low -- °F
Precip. -- in
Pressure 30.16 in
Visibility 10.0 miles
Clouds Few 10000 ft
Dew Point 51 °F
Humidity 75%
Rainfall 0.00 in
Snow Depth Not available.
6:23 AM 9:20 PM
Waxing Crescent, 3% visible
METAR KHUF 251153Z 27004KT 10SM FEW100 16/10 A3016 RMK AO2 SLP211 T01560100 10156 20128 53016
Pressure 30.16 in
Visibility 10.0 miles
Clouds Few 10000 ft
Dew Point 51 °F
Humidity 75%
Rainfall 0.00 in
Snow Depth Not available.
6:23 AM 9:20 PM
Waxing Crescent, 3% visible
METAR KHUF 251153Z 27004KT 10SM FEW100 16/10 A3016 RMK AO2 SLP211 T01560100 10156 20128 53016

Get Your Daily Forecast Email!

Thanks for signing up!

Be on the lookout for a verification email in your inbox.

You'll start receiving severe weather alerts in your inbox..

×

10-Day Weather Forecast

Almanac

Astronomy

Jun. 25, 2017 Rise Set
Actual Time
Civil Twilight
Nautical Twilight
Astronomical Twilight
Moon
Length of Visible Light
Length of Day
Tomorrow will be .
, % of the Moon is Illuminated

Today's Extremes

State Highs State Lows

Community

WunderPhotos

Category 6

Welcome to Category 6. This is the collective home for Weather Underground's featured writeups by Dr. Jeff Masters (right), Bob Henson (left), Chris Burt, and other regular contributors.

Nearby

Air Quality

  Air Quality AQ Index Pollutant
Not available.

Snow Depth

Station Depth Elevation

Earthquake Activity

City Distance Mag. Time & Date
Minimum magnitude displayed is 2.5.

Coastal Water Temperatures

Place Temperature

Stations

Nearby Weather Stations

Station Location Temp. Windchill Dew Point Humidity Wind Precip. Elev Updated Type
                   

Watches & Warnings

Flood Warning
Issued: 10:27 PM EDT Jun. 24, 2017 – National Weather Service

The Flood Warning continues for
the Wabash River at Montezuma.
* From late tonight to Tuesday morning.
* At 9:45 PM Saturday the stage was 12.5 feet.
* Flood stage is 14.0 feet.
* Minor flooding is forecast.
* Forecast... rise above flood stage by early tomorrow and continue to
rise to near 15.2 feet by Monday morning. The river will fall
below flood stage by Monday evening.
* At 14.0 feet... several hundred acres of bottomlands along the right
bank from the mouth of Sugar Creek to northern edge of Montezuma
begin to flood.


Lat... Lon 3997 8739 3986 8734 3977 8736 3977 8740
      3985 8741 3997 8745